sensor_id;sensor_type;location;lat;lon;timestamp;P1;durP1;ratioP1;P2;durP2;ratioP2
76053;SDS011;64752;48.870;9.082;2022-12-29T00:01:25;3.17;;;1.23;;
76053;SDS011;64752;48.870;9.082;2022-12-29T00:03:50;1.75;;;1.30;;
76053;SDS011;64752;48.870;9.082;2022-12-29T00:06:16;3.03;;;1.27;;
76053;SDS011;64752;48.870;9.082;2022-12-29T00:08:41;2.70;;;1.35;;
76053;SDS011;64752;48.870;9.082;2022-12-29T00:13:42;4.13;;;1.48;;
76053;SDS011;64752;48.870;9.082;2022-12-29T00:16:26;4.15;;;1.35;;
76053;SDS011;64752;48.870;9.082;2022-12-29T00:18:53;4.68;;;1.40;;
76053;SDS011;64752;48.870;9.082;2022-12-29T00:21:19;3.40;;;1.40;;
76053;SDS011;64752;48.870;9.082;2022-12-29T00:24:04;3.28;;;1.55;;
76053;SDS011;64752;48.870;9.082;2022-12-29T00:29:41;4.32;;;1.50;;
76053;SDS011;64752;48.870;9.082;2022-12-29T00:32:25;3.08;;;1.67;;
76053;SDS011;64752;48.870;9.082;2022-12-29T00:35:10;4.72;;;1.58;;
76053;SDS011;64752;48.870;9.082;2022-12-29T00:37:45;2.92;;;1.55;;
76053;SDS011;64752;48.870;9.082;2022-12-29T00:40:31;1.85;;;1.45;;
76053;SDS011;64752;48.870;9.082;2022-12-29T00:43:15;2.58;;;1.33;;
76053;SDS011;64752;48.870;9.082;2022-12-29T00:45:59;4.22;;;1.55;;
76053;SDS011;64752;48.870;9.082;2022-12-29T00:48:24;2.95;;;1.35;;
76053;SDS011;64752;48.870;9.082;2022-12-29T00:51:08;3.03;;;1.48;;
76053;SDS011;64752;48.870;9.082;2022-12-29T00:53:34;1.55;;;1.20;;
76053;SDS011;64752;48.870;9.082;2022-12-29T00:55:59;2.60;;;1.30;;
76053;SDS011;64752;48.870;9.082;2022-12-29T00:58:29;3.13;;;1.00;;
76053;SDS011;64752;48.870;9.082;2022-12-29T01:01:05;3.20;;;1.38;;
76053;SDS011;64752;48.870;9.082;2022-12-29T01:03:32;6.40;;;1.50;;
76053;SDS011;64752;48.870;9.082;2022-12-29T01:06:02;5.22;;;1.17;;
76053;SDS011;64752;48.870;9.082;2022-12-29T01:08:31;2.22;;;1.30;;
76053;SDS011;64752;48.870;9.082;2022-12-29T01:11:15;5.93;;;2.13;;
76053;SDS011;64752;48.870;9.082;2022-12-29T01:13:41;1.27;;;0.82;;
76053;SDS011;64752;48.870;9.082;2022-12-29T01:16:08;4.05;;;1.60;;
76053;SDS011;64752;48.870;9.082;2022-12-29T01:18:33;3.20;;;1.33;;
76053;SDS011;64752;48.870;9.082;2022-12-29T01:21:02;2.72;;;1.25;;
76053;SDS011;64752;48.870;9.082;2022-12-29T01:23:31;2.42;;;1.30;;
76053;SDS011;64752;48.870;9.082;2022-12-29T01:25:57;4.17;;;1.20;;
76053;SDS011;64752;48.870;9.082;2022-12-29T01:28:32;2.00;;;1.02;;
76053;SDS011;64752;48.870;9.082;2022-12-29T01:30:59;2.97;;;1.17;;
76053;SDS011;64752;48.870;9.082;2022-12-29T01:33:25;4.05;;;1.65;;
76053;SDS011;64752;48.870;9.082;2022-12-29T01:35:50;3.47;;;1.08;;
76053;SDS011;64752;48.870;9.082;2022-12-29T01:38:16;2.13;;;1.25;;
76053;SDS011;64752;48.870;9.082;2022-12-29T01:40:45;3.67;;;1.33;;
76053;SDS011;64752;48.870;9.082;2022-12-29T01:43:11;3.92;;;1.13;;
76053;SDS011;64752;48.870;9.082;2022-12-29T01:45:38;2.63;;;1.40;;
76053;SDS011;64752;48.870;9.082;2022-12-29T01:48:08;5.63;;;1.67;;
76053;SDS011;64752;48.870;9.082;2022-12-29T01:50:36;3.83;;;1.50;;
76053;SDS011;64752;48.870;9.082;2022-12-29T01:53:26;3.38;;;1.10;;
76053;SDS011;64752;48.870;9.082;2022-12-29T01:55:55;2.75;;;1.27;;
76053;SDS011;64752;48.870;9.082;2022-12-29T01:58:26;3.30;;;1.30;;
76053;SDS011;64752;48.870;9.082;2022-12-29T02:00:57;4.30;;;1.50;;
76053;SDS011;64752;48.870;9.082;2022-12-29T02:03:23;1.70;;;0.93;;
76053;SDS011;64752;48.870;9.082;2022-12-29T02:05:56;2.90;;;1.20;;
76053;SDS011;64752;48.870;9.082;2022-12-29T02:08:35;2.95;;;1.30;;
76053;SDS011;64752;48.870;9.082;2022-12-29T02:11:03;2.35;;;1.13;;
76053;SDS011;64752;48.870;9.082;2022-12-29T02:13:28;3.15;;;1.35;;
76053;SDS011;64752;48.870;9.082;2022-12-29T02:26:32;2.03;;;1.17;;
76053;SDS011;64752;48.870;9.082;2022-12-29T02:29:33;1.30;;;0.70;;
76053;SDS011;64752;48.870;9.082;2022-12-29T02:40:40;2.47;;;1.23;;
76053;SDS011;64752;48.870;9.082;2022-12-29T02:45:58;3.58;;;1.10;;
76053;SDS011;64752;48.870;9.082;2022-12-29T02:48:41;4.97;;;1.30;;
76053;SDS011;64752;48.870;9.082;2022-12-29T02:51:15;2.85;;;1.20;;
76053;SDS011;64752;48.870;9.082;2022-12-29T02:53:46;3.15;;;1.15;;
76053;SDS011;64752;48.870;9.082;2022-12-29T02:56:30;3.50;;;1.23;;
76053;SDS011;64752;48.870;9.082;2022-12-29T02:58:56;4.22;;;1.23;;
76053;SDS011;64752;48.870;9.082;2022-12-29T03:01:40;2.42;;;0.98;;
76053;SDS011;64752;48.870;9.082;2022-12-29T03:10:12;7.25;;;1.23;;
76053;SDS011;64752;48.870;9.082;2022-12-29T03:15:44;2.17;;;0.90;;
76053;SDS011;64752;48.870;9.082;2022-12-29T03:18:45;3.83;;;1.33;;
76053;SDS011;64752;48.870;9.082;2022-12-29T03:21:19;3.15;;;1.40;;
76053;SDS011;64752;48.870;9.082;2022-12-29T03:24:07;3.88;;;1.40;;
76053;SDS011;64752;48.870;9.082;2022-12-29T03:26:33;2.28;;;1.20;;
76053;SDS011;64752;48.870;9.082;2022-12-29T03:29:00;2.80;;;1.20;;
76053;SDS011;64752;48.870;9.082;2022-12-29T03:33:55;2.83;;;1.10;;
76053;SDS011;64752;48.870;9.082;2022-12-29T03:36:25;6.93;;;1.00;;
76053;SDS011;64752;48.870;9.082;2022-12-29T03:39:02;3.92;;;1.10;;
76053;SDS011;64752;48.870;9.082;2022-12-29T03:41:34;3.42;;;0.98;;
76053;SDS011;64752;48.870;9.082;2022-12-29T03:44:01;2.90;;;1.10;;
76053;SDS011;64752;48.870;9.082;2022-12-29T03:46:26;2.00;;;1.10;;
76053;SDS011;64752;48.870;9.082;2022-12-29T03:48:52;2.53;;;1.10;;
76053;SDS011;64752;48.870;9.082;2022-12-29T03:51:17;4.18;;;1.00;;
76053;SDS011;64752;48.870;9.082;2022-12-29T03:53:42;1.00;;;0.80;;
76053;SDS011;64752;48.870;9.082;2022-12-29T03:56:08;2.22;;;0.95;;
76053;SDS011;64752;48.870;9.082;2022-12-29T03:58:33;3.60;;;1.10;;
76053;SDS011;64752;48.870;9.082;2022-12-29T04:00:59;2.23;;;0.97;;
76053;SDS011;64752;48.870;9.082;2022-12-29T04:03:24;3.33;;;1.20;;
76053;SDS011;64752;48.870;9.082;2022-12-29T04:05:50;3.88;;;1.25;;
76053;SDS011;64752;48.870;9.082;2022-12-29T04:08:15;5.17;;;1.33;;
76053;SDS011;64752;48.870;9.082;2022-12-29T04:10:40;2.38;;;1.00;;
76053;SDS011;64752;48.870;9.082;2022-12-29T04:13:06;3.20;;;1.07;;
76053;SDS011;64752;48.870;9.082;2022-12-29T04:15:31;2.22;;;0.98;;
76053;SDS011;64752;48.870;9.082;2022-12-29T04:17:57;3.92;;;1.15;;
76053;SDS011;64752;48.870;9.082;2022-12-29T04:20:22;2.00;;;1.00;;
76053;SDS011;64752;48.870;9.082;2022-12-29T04:23:07;3.60;;;1.10;;
76053;SDS011;64752;48.870;9.082;2022-12-29T04:25:32;2.47;;;1.05;;
76053;SDS011;64752;48.870;9.082;2022-12-29T04:27:58;3.53;;;1.27;;
76053;SDS011;64752;48.870;9.082;2022-12-29T04:30:24;3.37;;;0.90;;
76053;SDS011;64752;48.870;9.082;2022-12-29T04:32:49;4.03;;;1.10;;
76053;SDS011;64752;48.870;9.082;2022-12-29T04:35:15;2.97;;;1.17;;
76053;SDS011;64752;48.870;9.082;2022-12-29T04:37:40;4.00;;;1.00;;
76053;SDS011;64752;48.870;9.082;2022-12-29T04:40:06;2.97;;;1.25;;
76053;SDS011;64752;48.870;9.082;2022-12-29T04:42:32;2.70;;;1.57;;
76053;SDS011;64752;48.870;9.082;2022-12-29T04:44:57;3.83;;;1.10;;
76053;SDS011;64752;48.870;9.082;2022-12-29T04:47:22;1.90;;;1.03;;
76053;SDS011;64752;48.870;9.082;2022-12-29T04:49:48;5.15;;;1.20;;
76053;SDS011;64752;48.870;9.082;2022-12-29T04:52:14;2.67;;;1.08;;
76053;SDS011;64752;48.870;9.082;2022-12-29T04:54:40;7.90;;;1.30;;
76053;SDS011;64752;48.870;9.082;2022-12-29T04:57:06;2.53;;;1.25;;
76053;SDS011;64752;48.870;9.082;2022-12-29T04:59:31;3.22;;;1.35;;
76053;SDS011;64752;48.870;9.082;2022-12-29T05:01:56;3.83;;;1.10;;
76053;SDS011;64752;48.870;9.082;2022-12-29T05:04:22;3.33;;;0.90;;
76053;SDS011;64752;48.870;9.082;2022-12-29T05:06:47;5.85;;;1.25;;
76053;SDS011;64752;48.870;9.082;2022-12-29T05:09:13;3.47;;;1.13;;
76053;SDS011;64752;48.870;9.082;2022-12-29T05:11:38;3.10;;;1.38;;
76053;SDS011;64752;48.870;9.082;2022-12-29T05:14:03;4.80;;;1.30;;
76053;SDS011;64752;48.870;9.082;2022-12-29T05:16:29;3.72;;;1.33;;
76053;SDS011;64752;48.870;9.082;2022-12-29T05:18:54;7.18;;;1.40;;
76053;SDS011;64752;48.870;9.082;2022-12-29T05:21:19;4.00;;;1.00;;
76053;SDS011;64752;48.870;9.082;2022-12-29T05:23:45;2.30;;;1.27;;
76053;SDS011;64752;48.870;9.082;2022-12-29T05:26:10;3.15;;;1.42;;
76053;SDS011;64752;48.870;9.082;2022-12-29T05:28:35;4.85;;;1.63;;
76053;SDS011;64752;48.870;9.082;2022-12-29T05:31:00;2.10;;;1.23;;
76053;SDS011;64752;48.870;9.082;2022-12-29T05:33:26;4.57;;;1.60;;
76053;SDS011;64752;48.870;9.082;2022-12-29T05:35:51;4.55;;;1.50;;
76053;SDS011;64752;48.870;9.082;2022-12-29T05:38:16;2.43;;;1.47;;
76053;SDS011;64752;48.870;9.082;2022-12-29T05:40:42;2.47;;;1.30;;
76053;SDS011;64752;48.870;9.082;2022-12-29T05:43:08;2.40;;;1.38;;
76053;SDS011;64752;48.870;9.082;2022-12-29T05:45:35;7.73;;;1.67;;
76053;SDS011;64752;48.870;9.082;2022-12-29T05:48:00;2.88;;;1.50;;
76053;SDS011;64752;48.870;9.082;2022-12-29T05:50:26;4.00;;;1.38;;
76053;SDS011;64752;48.870;9.082;2022-12-29T05:52:51;3.08;;;1.40;;
76053;SDS011;64752;48.870;9.082;2022-12-29T05:55:17;2.75;;;1.30;;
76053;SDS011;64752;48.870;9.082;2022-12-29T05:57:42;2.05;;;1.20;;
76053;SDS011;64752;48.870;9.082;2022-12-29T06:00:07;4.38;;;1.60;;
76053;SDS011;64752;48.870;9.082;2022-12-29T06:02:33;5.57;;;1.60;;
76053;SDS011;64752;48.870;9.082;2022-12-29T06:04:59;4.20;;;1.50;;
76053;SDS011;64752;48.870;9.082;2022-12-29T06:07:24;3.92;;;1.52;;
76053;SDS011;64752;48.870;9.082;2022-12-29T06:09:49;2.13;;;1.35;;
76053;SDS011;64752;48.870;9.082;2022-12-29T06:12:14;3.70;;;1.48;;
76053;SDS011;64752;48.870;9.082;2022-12-29T06:14:40;3.23;;;1.50;;
76053;SDS011;64752;48.870;9.082;2022-12-29T06:17:05;2.50;;;1.35;;
76053;SDS011;64752;48.870;9.082;2022-12-29T06:19:30;1.75;;;1.30;;
76053;SDS011;64752;48.870;9.082;2022-12-29T06:21:56;2.65;;;1.48;;
76053;SDS011;64752;48.870;9.082;2022-12-29T06:24:21;3.20;;;1.53;;
76053;SDS011;64752;48.870;9.082;2022-12-29T06:26:47;3.35;;;1.50;;
76053;SDS011;64752;48.870;9.082;2022-12-29T06:29:12;2.55;;;1.65;;
76053;SDS011;64752;48.870;9.082;2022-12-29T06:31:41;4.03;;;1.70;;
76053;SDS011;64752;48.870;9.082;2022-12-29T06:34:08;2.60;;;1.42;;
76053;SDS011;64752;48.870;9.082;2022-12-29T06:36:33;1.87;;;1.13;;
76053;SDS011;64752;48.870;9.082;2022-12-29T06:38:59;3.28;;;1.50;;
76053;SDS011;64752;48.870;9.082;2022-12-29T06:41:24;5.45;;;1.77;;
76053;SDS011;64752;48.870;9.082;2022-12-29T06:43:49;4.20;;;1.70;;
76053;SDS011;64752;48.870;9.082;2022-12-29T06:46:15;5.72;;;1.70;;
76053;SDS011;64752;48.870;9.082;2022-12-29T06:48:40;2.45;;;1.40;;
76053;SDS011;64752;48.870;9.082;2022-12-29T06:51:07;3.88;;;1.55;;
76053;SDS011;64752;48.870;9.082;2022-12-29T06:53:32;4.83;;;1.40;;
76053;SDS011;64752;48.870;9.082;2022-12-29T06:55:58;7.47;;;2.00;;
76053;SDS011;64752;48.870;9.082;2022-12-29T06:58:23;7.33;;;1.40;;
76053;SDS011;64752;48.870;9.082;2022-12-29T07:00:48;2.25;;;1.60;;
76053;SDS011;64752;48.870;9.082;2022-12-29T07:03:14;6.55;;;1.65;;
76053;SDS011;64752;48.870;9.082;2022-12-29T07:05:39;9.57;;;1.58;;
76053;SDS011;64752;48.870;9.082;2022-12-29T07:08:04;5.80;;;1.83;;
76053;SDS011;64752;48.870;9.082;2022-12-29T07:10:30;5.10;;;1.50;;
76053;SDS011;64752;48.870;9.082;2022-12-29T07:12:56;5.53;;;1.67;;
76053;SDS011;64752;48.870;9.082;2022-12-29T07:15:21;6.82;;;1.50;;
76053;SDS011;64752;48.870;9.082;2022-12-29T07:17:46;5.32;;;2.20;;
76053;SDS011;64752;48.870;9.082;2022-12-29T07:20:14;6.47;;;1.48;;
76053;SDS011;64752;48.870;9.082;2022-12-29T07:22:39;3.10;;;1.20;;
76053;SDS011;64752;48.870;9.082;2022-12-29T07:25:05;3.73;;;1.60;;
76053;SDS011;64752;48.870;9.082;2022-12-29T07:27:30;3.37;;;1.60;;
76053;SDS011;64752;48.870;9.082;2022-12-29T07:29:55;3.90;;;1.60;;
76053;SDS011;64752;48.870;9.082;2022-12-29T07:32:21;4.72;;;1.50;;
76053;SDS011;64752;48.870;9.082;2022-12-29T07:34:46;4.93;;;1.70;;
76053;SDS011;64752;48.870;9.082;2022-12-29T07:37:12;6.43;;;1.70;;
76053;SDS011;64752;48.870;9.082;2022-12-29T07:39:39;4.25;;;1.63;;
76053;SDS011;64752;48.870;9.082;2022-12-29T07:42:04;4.75;;;1.95;;
76053;SDS011;64752;48.870;9.082;2022-12-29T07:44:30;2.23;;;1.70;;
76053;SDS011;64752;48.870;9.082;2022-12-29T07:46:55;4.17;;;1.40;;
76053;SDS011;64752;48.870;9.082;2022-12-29T07:49:20;2.92;;;1.88;;
76053;SDS011;64752;48.870;9.082;2022-12-29T07:51:46;2.47;;;1.57;;
76053;SDS011;64752;48.870;9.082;2022-12-29T07:54:11;4.27;;;1.27;;
76053;SDS011;64752;48.870;9.082;2022-12-29T07:56:37;4.55;;;1.55;;
76053;SDS011;64752;48.870;9.082;2022-12-29T07:59:03;2.15;;;1.38;;
76053;SDS011;64752;48.870;9.082;2022-12-29T08:01:28;3.13;;;1.45;;
76053;SDS011;64752;48.870;9.082;2022-12-29T08:03:54;5.35;;;1.98;;
76053;SDS011;64752;48.870;9.082;2022-12-29T08:06:19;2.80;;;1.40;;
76053;SDS011;64752;48.870;9.082;2022-12-29T08:08:45;5.07;;;1.90;;
76053;SDS011;64752;48.870;9.082;2022-12-29T08:11:10;2.67;;;1.58;;
76053;SDS011;64752;48.870;9.082;2022-12-29T08:13:36;2.47;;;1.50;;
76053;SDS011;64752;48.870;9.082;2022-12-29T08:16:01;4.97;;;1.53;;
76053;SDS011;64752;48.870;9.082;2022-12-29T08:18:26;5.82;;;1.38;;
76053;SDS011;64752;48.870;9.082;2022-12-29T08:20:52;6.47;;;1.53;;
76053;SDS011;64752;48.870;9.082;2022-12-29T08:23:17;2.10;;;1.23;;
76053;SDS011;64752;48.870;9.082;2022-12-29T08:25:42;4.23;;;1.90;;
76053;SDS011;64752;48.870;9.082;2022-12-29T08:28:08;5.63;;;1.60;;
76053;SDS011;64752;48.870;9.082;2022-12-29T08:30:33;3.03;;;1.87;;
76053;SDS011;64752;48.870;9.082;2022-12-29T08:32:58;5.00;;;1.50;;
76053;SDS011;64752;48.870;9.082;2022-12-29T08:35:24;7.43;;;1.75;;
76053;SDS011;64752;48.870;9.082;2022-12-29T08:37:49;6.18;;;1.65;;
76053;SDS011;64752;48.870;9.082;2022-12-29T08:40:14;4.87;;;1.73;;
76053;SDS011;64752;48.870;9.082;2022-12-29T08:42:40;3.30;;;1.40;;
76053;SDS011;64752;48.870;9.082;2022-12-29T08:45:06;3.00;;;1.53;;
76053;SDS011;64752;48.870;9.082;2022-12-29T08:47:32;2.72;;;1.50;;
76053;SDS011;64752;48.870;9.082;2022-12-29T08:49:58;2.80;;;1.17;;
76053;SDS011;64752;48.870;9.082;2022-12-29T08:52:23;5.82;;;1.20;;
76053;SDS011;64752;48.870;9.082;2022-12-29T08:54:48;2.13;;;1.23;;
76053;SDS011;64752;48.870;9.082;2022-12-29T08:57:13;4.68;;;2.10;;
76053;SDS011;64752;48.870;9.082;2022-12-29T08:59:39;4.78;;;1.50;;
76053;SDS011;64752;48.870;9.082;2022-12-29T09:02:04;3.23;;;1.37;;
76053;SDS011;64752;48.870;9.082;2022-12-29T09:04:29;6.43;;;1.63;;
76053;SDS011;64752;48.870;9.082;2022-12-29T09:06:55;5.25;;;1.33;;
76053;SDS011;64752;48.870;9.082;2022-12-29T09:09:20;4.70;;;1.83;;
76053;SDS011;64752;48.870;9.082;2022-12-29T09:11:46;1.88;;;1.25;;
76053;SDS011;64752;48.870;9.082;2022-12-29T09:14:11;5.73;;;1.60;;
76053;SDS011;64752;48.870;9.082;2022-12-29T09:16:37;2.90;;;1.50;;
76053;SDS011;64752;48.870;9.082;2022-12-29T09:19:03;3.63;;;1.47;;
76053;SDS011;64752;48.870;9.082;2022-12-29T09:21:28;4.00;;;1.50;;
76053;SDS011;64752;48.870;9.082;2022-12-29T09:23:54;7.33;;;1.47;;
76053;SDS011;64752;48.870;9.082;2022-12-29T09:26:19;5.13;;;1.67;;
76053;SDS011;64752;48.870;9.082;2022-12-29T09:28:44;4.60;;;1.20;;
76053;SDS011;64752;48.870;9.082;2022-12-29T09:31:10;4.72;;;1.55;;
76053;SDS011;64752;48.870;9.082;2022-12-29T09:33:36;2.97;;;1.40;;
76053;SDS011;64752;48.870;9.082;2022-12-29T09:36:01;2.50;;;1.50;;
76053;SDS011;64752;48.870;9.082;2022-12-29T09:38:27;3.35;;;1.20;;
76053;SDS011;64752;48.870;9.082;2022-12-29T09:40:59;3.83;;;1.13;;
76053;SDS011;64752;48.870;9.082;2022-12-29T09:46:27;2.03;;;1.10;;
76053;SDS011;64752;48.870;9.082;2022-12-29T09:51:52;2.60;;;1.30;;
76053;SDS011;64752;48.870;9.082;2022-12-29T09:54:39;3.53;;;1.20;;
76053;SDS011;64752;48.870;9.082;2022-12-29T09:57:13;4.78;;;1.30;;
76053;SDS011;64752;48.870;9.082;2022-12-29T09:59:42;2.85;;;1.33;;
76053;SDS011;64752;48.870;9.082;2022-12-29T10:04:57;3.70;;;1.30;;
76053;SDS011;64752;48.870;9.082;2022-12-29T10:07:26;2.10;;;1.10;;
76053;SDS011;64752;48.870;9.082;2022-12-29T10:10:03;2.97;;;1.17;;
76053;SDS011;64752;48.870;9.082;2022-12-29T10:15:33;7.70;;;1.30;;
76053;SDS011;64752;48.870;9.082;2022-12-29T10:18:15;2.85;;;1.20;;
76053;SDS011;64752;48.870;9.082;2022-12-29T10:23:48;2.83;;;1.10;;
76053;SDS011;64752;48.870;9.082;2022-12-29T10:26:17;3.92;;;1.10;;
76053;SDS011;64752;48.870;9.082;2022-12-29T10:28:58;1.95;;;1.00;;
76053;SDS011;64752;48.870;9.082;2022-12-29T10:34:47;3.08;;;1.30;;
76053;SDS011;64752;48.870;9.082;2022-12-29T10:39:41;2.75;;;1.00;;
76053;SDS011;64752;48.870;9.082;2022-12-29T10:44:44;2.78;;;1.10;;
76053;SDS011;64752;48.870;9.082;2022-12-29T10:47:16;2.40;;;1.10;;
76053;SDS011;64752;48.870;9.082;2022-12-29T10:49:45;2.83;;;1.20;;
76053;SDS011;64752;48.870;9.082;2022-12-29T10:52:12;2.03;;;1.10;;
76053;SDS011;64752;48.870;9.082;2022-12-29T10:54:51;3.13;;;1.35;;
76053;SDS011;64752;48.870;9.082;2022-12-29T10:57:28;1.77;;;1.00;;
76053;SDS011;64752;48.870;9.082;2022-12-29T11:02:37;1.92;;;1.13;;
76053;SDS011;64752;48.870;9.082;2022-12-29T11:05:30;2.50;;;1.10;;
76053;SDS011;64752;48.870;9.082;2022-12-29T11:08:04;2.22;;;0.95;;
76053;SDS011;64752;48.870;9.082;2022-12-29T11:10:37;6.88;;;1.25;;
76053;SDS011;64752;48.870;9.082;2022-12-29T11:15:42;2.20;;;1.30;;
76053;SDS011;64752;48.870;9.082;2022-12-29T11:18:25;2.95;;;1.10;;
76053;SDS011;64752;48.870;9.082;2022-12-29T11:20:58;1.63;;;1.02;;
76053;SDS011;64752;48.870;9.082;2022-12-29T11:23:26;4.28;;;1.30;;
76053;SDS011;64752;48.870;9.082;2022-12-29T11:28:39;2.97;;;1.40;;
76053;SDS011;64752;48.870;9.082;2022-12-29T11:31:06;2.30;;;1.10;;
76053;SDS011;64752;48.870;9.082;2022-12-29T11:33:34;6.20;;;1.55;;
76053;SDS011;64752;48.870;9.082;2022-12-29T11:36:02;3.88;;;1.00;;
76053;SDS011;64752;48.870;9.082;2022-12-29T11:38:39;4.68;;;1.10;;
76053;SDS011;64752;48.870;9.082;2022-12-29T11:41:11;3.33;;;1.20;;
76053;SDS011;64752;48.870;9.082;2022-12-29T11:43:40;3.10;;;1.00;;
76053;SDS011;64752;48.870;9.082;2022-12-29T11:46:13;2.63;;;0.98;;
76053;SDS011;64752;48.870;9.082;2022-12-29T11:48:41;1.85;;;0.80;;
76053;SDS011;64752;48.870;9.082;2022-12-29T11:51:07;0.73;;;0.70;;
76053;SDS011;64752;48.870;9.082;2022-12-29T11:53:43;3.15;;;1.00;;
76053;SDS011;64752;48.870;9.082;2022-12-29T11:56:20;3.42;;;0.90;;
76053;SDS011;64752;48.870;9.082;2022-12-29T11:58:48;2.50;;;0.85;;
76053;SDS011;64752;48.870;9.082;2022-12-29T12:01:19;1.48;;;0.40;;
76053;SDS011;64752;48.870;9.082;2022-12-29T12:03:56;2.42;;;0.63;;
76053;SDS011;64752;48.870;9.082;2022-12-29T12:06:27;1.38;;;0.80;;
76053;SDS011;64752;48.870;9.082;2022-12-29T12:08:57;1.08;;;0.60;;
76053;SDS011;64752;48.870;9.082;2022-12-29T12:11:28;2.17;;;0.43;;
76053;SDS011;64752;48.870;9.082;2022-12-29T12:14:15;1.20;;;0.77;;
76053;SDS011;64752;48.870;9.082;2022-12-29T12:16:48;1.63;;;0.68;;
76053;SDS011;64752;48.870;9.082;2022-12-29T12:19:18;1.10;;;0.93;;
76053;SDS011;64752;48.870;9.082;2022-12-29T12:21:54;3.13;;;0.90;;
76053;SDS011;64752;48.870;9.082;2022-12-29T12:24:46;1.58;;;0.90;;
76053;SDS011;64752;48.870;9.082;2022-12-29T12:30:02;1.47;;;0.53;;
76053;SDS011;64752;48.870;9.082;2022-12-29T12:41:08;1.85;;;0.63;;
76053;SDS011;64752;48.870;9.082;2022-12-29T13:02:44;4.20;;;1.02;;
76053;SDS011;64752;48.870;9.082;2022-12-29T13:14:19;5.22;;;1.50;;
76053;SDS011;64752;48.870;9.082;2022-12-29T13:23:03;2.85;;;1.40;;
76053;SDS011;64752;48.870;9.082;2022-12-29T13:33:58;2.70;;;1.52;;
76053;SDS011;64752;48.870;9.082;2022-12-29T13:36:31;7.32;;;1.67;;
76053;SDS011;64752;48.870;9.082;2022-12-29T13:39:09;2.25;;;1.50;;
76053;SDS011;64752;48.870;9.082;2022-12-29T13:41:42;2.97;;;1.30;;
76053;SDS011;64752;48.870;9.082;2022-12-29T13:44:14;3.72;;;1.50;;
76053;SDS011;64752;48.870;9.082;2022-12-29T13:46:57;2.90;;;1.63;;
76053;SDS011;64752;48.870;9.082;2022-12-29T13:49:27;3.50;;;1.40;;
76053;SDS011;64752;48.870;9.082;2022-12-29T13:51:55;2.70;;;1.60;;
76053;SDS011;64752;48.870;9.082;2022-12-29T13:54:36;4.47;;;1.65;;
76053;SDS011;64752;48.870;9.082;2022-12-29T14:00:23;3.53;;;1.23;;
76053;SDS011;64752;48.870;9.082;2022-12-29T14:05:44;1.77;;;1.10;;
76053;SDS011;64752;48.870;9.082;2022-12-29T14:08:14;3.05;;;1.40;;
76053;SDS011;64752;48.870;9.082;2022-12-29T14:10:49;2.20;;;1.27;;
76053;SDS011;64752;48.870;9.082;2022-12-29T14:15:44;3.78;;;1.17;;
76053;SDS011;64752;48.870;9.082;2022-12-29T14:18:22;4.18;;;1.55;;
76053;SDS011;64752;48.870;9.082;2022-12-29T14:23:27;5.40;;;1.40;;
76053;SDS011;64752;48.870;9.082;2022-12-29T14:28:40;3.90;;;1.40;;
76053;SDS011;64752;48.870;9.082;2022-12-29T14:33:38;3.47;;;1.48;;
76053;SDS011;64752;48.870;9.082;2022-12-29T14:36:20;2.72;;;1.23;;
76053;SDS011;64752;48.870;9.082;2022-12-29T14:38:49;3.47;;;1.67;;
76053;SDS011;64752;48.870;9.082;2022-12-29T14:41:15;1.45;;;1.20;;
76053;SDS011;64752;48.870;9.082;2022-12-29T14:44:00;5.43;;;1.60;;
76053;SDS011;64752;48.870;9.082;2022-12-29T14:49:26;3.20;;;1.48;;
76053;SDS011;64752;48.870;9.082;2022-12-29T14:52:03;3.40;;;1.60;;
76053;SDS011;64752;48.870;9.082;2022-12-29T14:56:58;3.38;;;1.60;;
76053;SDS011;64752;48.870;9.082;2022-12-29T14:59:28;3.65;;;1.30;;
76053;SDS011;64752;48.870;9.082;2022-12-29T15:01:55;3.95;;;1.55;;
76053;SDS011;64752;48.870;9.082;2022-12-29T15:04:22;2.40;;;1.47;;
76053;SDS011;64752;48.870;9.082;2022-12-29T15:06:55;4.55;;;2.08;;
76053;SDS011;64752;48.870;9.082;2022-12-29T15:09:25;4.70;;;1.55;;
76053;SDS011;64752;48.870;9.082;2022-12-29T15:12:04;2.92;;;1.42;;
76053;SDS011;64752;48.870;9.082;2022-12-29T15:14:37;4.35;;;1.67;;
76053;SDS011;64752;48.870;9.082;2022-12-29T15:17:22;4.13;;;1.42;;
76053;SDS011;64752;48.870;9.082;2022-12-29T15:19:53;3.33;;;1.73;;
76053;SDS011;64752;48.870;9.082;2022-12-29T15:24:45;5.40;;;1.60;;
76053;SDS011;64752;48.870;9.082;2022-12-29T15:27:15;4.30;;;1.50;;
76053;SDS011;64752;48.870;9.082;2022-12-29T15:29:44;4.25;;;1.60;;
76053;SDS011;64752;48.870;9.082;2022-12-29T15:34:46;2.45;;;1.02;;
76053;SDS011;64752;48.870;9.082;2022-12-29T15:37:17;2.53;;;1.10;;
76053;SDS011;64752;48.870;9.082;2022-12-29T15:39:48;2.15;;;0.73;;
76053;SDS011;64752;48.870;9.082;2022-12-29T15:47:38;2.92;;;1.02;;
76053;SDS011;64752;48.870;9.082;2022-12-29T15:50:12;3.65;;;0.98;;
76053;SDS011;64752;48.870;9.082;2022-12-29T15:52:47;2.80;;;1.52;;
76053;SDS011;64752;48.870;9.082;2022-12-29T15:55:20;3.72;;;1.90;;
76053;SDS011;64752;48.870;9.082;2022-12-29T15:57:51;4.53;;;1.65;;
76053;SDS011;64752;48.870;9.082;2022-12-29T16:00:23;5.30;;;2.20;;
76053;SDS011;64752;48.870;9.082;2022-12-29T16:02:51;3.10;;;1.60;;
76053;SDS011;64752;48.870;9.082;2022-12-29T16:05:18;6.22;;;3.33;;
76053;SDS011;64752;48.870;9.082;2022-12-29T16:07:57;7.22;;;2.30;;
76053;SDS011;64752;48.870;9.082;2022-12-29T16:10:37;4.32;;;1.88;;
76053;SDS011;64752;48.870;9.082;2022-12-29T16:13:16;5.63;;;2.13;;
76053;SDS011;64752;48.870;9.082;2022-12-29T16:15:55;3.05;;;1.60;;
76053;SDS011;64752;48.870;9.082;2022-12-29T16:18:26;1.67;;;1.08;;
76053;SDS011;64752;48.870;9.082;2022-12-29T16:20:53;1.65;;;1.00;;
76053;SDS011;64752;48.870;9.082;2022-12-29T16:23:25;1.92;;;1.30;;
76053;SDS011;64752;48.870;9.082;2022-12-29T16:25:53;2.88;;;1.58;;
76053;SDS011;64752;48.870;9.082;2022-12-29T16:28:23;4.00;;;1.88;;
76053;SDS011;64752;48.870;9.082;2022-12-29T16:31:05;2.42;;;1.65;;
76053;SDS011;64752;48.870;9.082;2022-12-29T16:33:44;2.45;;;1.10;;
76053;SDS011;64752;48.870;9.082;2022-12-29T16:36:28;2.42;;;1.30;;
76053;SDS011;64752;48.870;9.082;2022-12-29T16:41:48;2.88;;;0.95;;
76053;SDS011;64752;48.870;9.082;2022-12-29T16:46:55;3.10;;;1.77;;
76053;SDS011;64752;48.870;9.082;2022-12-29T16:49:24;2.28;;;1.23;;
76053;SDS011;64752;48.870;9.082;2022-12-29T16:51:51;1.50;;;0.98;;
76053;SDS011;64752;48.870;9.082;2022-12-29T16:54:21;3.55;;;1.48;;
76053;SDS011;64752;48.870;9.082;2022-12-29T16:56:49;2.13;;;1.45;;
76053;SDS011;64752;48.870;9.082;2022-12-29T17:01:50;2.30;;;1.05;;
76053;SDS011;64752;48.870;9.082;2022-12-29T17:04:15;18.00;;;7.57;;
76053;SDS011;64752;48.870;9.082;2022-12-29T17:06:40;22.67;;;12.07;;
76053;SDS011;64752;48.870;9.082;2022-12-29T17:09:39;15.32;;;6.75;;
76053;SDS011;64752;48.870;9.082;2022-12-29T17:11:58;14.18;;;5.82;;
76053;SDS011;64752;48.870;9.082;2022-12-29T17:14:31;4.97;;;1.90;;
76053;SDS011;64752;48.870;9.082;2022-12-29T17:17:01;2.05;;;1.65;;
76053;SDS011;64752;48.870;9.082;2022-12-29T17:19:32;4.43;;;2.45;;
76053;SDS011;64752;48.870;9.082;2022-12-29T17:22:00;4.82;;;2.20;;
76053;SDS011;64752;48.870;9.082;2022-12-29T17:24:26;5.35;;;3.08;;
76053;SDS011;64752;48.870;9.082;2022-12-29T17:26:53;7.50;;;4.30;;
76053;SDS011;64752;48.870;9.082;2022-12-29T17:29:34;11.07;;;6.88;;
76053;SDS011;64752;48.870;9.082;2022-12-29T17:32:03;5.88;;;2.83;;
76053;SDS011;64752;48.870;9.082;2022-12-29T17:34:31;3.90;;;1.95;;
76053;SDS011;64752;48.870;9.082;2022-12-29T17:36:57;4.03;;;2.40;;
76053;SDS011;64752;48.870;9.082;2022-12-29T17:39:22;6.60;;;3.30;;
76053;SDS011;64752;48.870;9.082;2022-12-29T17:41:47;3.50;;;2.90;;
76053;SDS011;64752;48.870;9.082;2022-12-29T17:44:17;5.88;;;4.50;;
76053;SDS011;64752;48.870;9.082;2022-12-29T17:46:44;5.35;;;3.75;;